sensor_id;sensor_type;location;lat;lon;timestamp;P1;durP1;ratioP1;P2;durP2;ratioP2
5303;SDS011;2674;49.722;10.892;2022-10-23T00:03:53;3.47;;;3.07;;
5303;SDS011;2674;49.722;10.892;2022-10-23T00:06:25;3.90;;;3.50;;
5303;SDS011;2674;49.722;10.892;2022-10-23T00:08:52;6.87;;;3.10;;
5303;SDS011;2674;49.722;10.892;2022-10-23T00:11:20;4.30;;;3.50;;
5303;SDS011;2674;49.722;10.892;2022-10-23T00:13:48;5.23;;;3.37;;
5303;SDS011;2674;49.722;10.892;2022-10-23T00:16:15;5.13;;;3.57;;
5303;SDS011;2674;49.722;10.892;2022-10-23T00:18:41;5.20;;;3.60;;
5303;SDS011;2674;49.722;10.892;2022-10-23T00:21:08;3.67;;;3.47;;
5303;SDS011;2674;49.722;10.892;2022-10-23T00:23:35;8.80;;;3.63;;
5303;SDS011;2674;49.722;10.892;2022-10-23T00:26:02;15.20;;;3.77;;
5303;SDS011;2674;49.722;10.892;2022-10-23T00:28:28;9.90;;;3.80;;
5303;SDS011;2674;49.722;10.892;2022-10-23T00:30:54;10.57;;;3.70;;
5303;SDS011;2674;49.722;10.892;2022-10-23T00:33:20;6.13;;;3.83;;
5303;SDS011;2674;49.722;10.892;2022-10-23T00:35:46;6.90;;;4.17;;
5303;SDS011;2674;49.722;10.892;2022-10-23T00:38:12;8.87;;;4.57;;
5303;SDS011;2674;49.722;10.892;2022-10-23T00:40:38;6.00;;;3.70;;
5303;SDS011;2674;49.722;10.892;2022-10-23T00:43:09;6.53;;;4.10;;
5303;SDS011;2674;49.722;10.892;2022-10-23T00:45:46;6.07;;;4.10;;
5303;SDS011;2674;49.722;10.892;2022-10-23T00:48:12;5.40;;;4.30;;
5303;SDS011;2674;49.722;10.892;2022-10-23T00:50:39;9.07;;;4.27;;
5303;SDS011;2674;49.722;10.892;2022-10-23T00:53:06;7.63;;;5.23;;
5303;SDS011;2674;49.722;10.892;2022-10-23T00:55:34;9.63;;;4.90;;
5303;SDS011;2674;49.722;10.892;2022-10-23T00:58:00;6.63;;;3.80;;
5303;SDS011;2674;49.722;10.892;2022-10-23T01:00:27;8.23;;;3.60;;
5303;SDS011;2674;49.722;10.892;2022-10-23T01:02:55;9.73;;;4.07;;
5303;SDS011;2674;49.722;10.892;2022-10-23T01:05:24;6.40;;;4.63;;
5303;SDS011;2674;49.722;10.892;2022-10-23T01:07:58;5.43;;;4.20;;
5303;SDS011;2674;49.722;10.892;2022-10-23T01:10:41;6.80;;;4.57;;
5303;SDS011;2674;49.722;10.892;2022-10-23T01:13:15;8.10;;;4.30;;
5303;SDS011;2674;49.722;10.892;2022-10-23T01:16:01;7.40;;;4.17;;
5303;SDS011;2674;49.722;10.892;2022-10-23T01:18:48;5.40;;;4.40;;
5303;SDS011;2674;49.722;10.892;2022-10-23T01:21:41;9.40;;;4.13;;
5303;SDS011;2674;49.722;10.892;2022-10-23T01:24:29;8.33;;;5.10;;
5303;SDS011;2674;49.722;10.892;2022-10-23T01:30:11;5.43;;;4.20;;
5303;SDS011;2674;49.722;10.892;2022-10-23T01:32:44;6.93;;;4.07;;
5303;SDS011;2674;49.722;10.892;2022-10-23T01:35:28;6.50;;;4.60;;
5303;SDS011;2674;49.722;10.892;2022-10-23T01:38:11;6.07;;;5.03;;
5303;SDS011;2674;49.722;10.892;2022-10-23T01:40:43;5.40;;;4.10;;
5303;SDS011;2674;49.722;10.892;2022-10-23T01:43:23;5.80;;;4.00;;
5303;SDS011;2674;49.722;10.892;2022-10-23T01:46:03;6.30;;;4.33;;
5303;SDS011;2674;49.722;10.892;2022-10-23T01:48:33;10.73;;;4.20;;
5303;SDS011;2674;49.722;10.892;2022-10-23T01:51:01;10.50;;;5.00;;
5303;SDS011;2674;49.722;10.892;2022-10-23T01:53:30;5.63;;;4.50;;
5303;SDS011;2674;49.722;10.892;2022-10-23T01:56:02;5.20;;;4.80;;
5303;SDS011;2674;49.722;10.892;2022-10-23T01:58:37;6.63;;;3.90;;
5303;SDS011;2674;49.722;10.892;2022-10-23T02:01:05;4.97;;;4.20;;
5303;SDS011;2674;49.722;10.892;2022-10-23T02:03:33;4.17;;;3.73;;
5303;SDS011;2674;49.722;10.892;2022-10-23T02:06:01;8.33;;;4.50;;
5303;SDS011;2674;49.722;10.892;2022-10-23T02:08:27;6.10;;;4.70;;
5303;SDS011;2674;49.722;10.892;2022-10-23T02:16:33;6.30;;;4.13;;
5303;SDS011;2674;49.722;10.892;2022-10-23T02:24:25;4.50;;;3.93;;
5303;SDS011;2674;49.722;10.892;2022-10-23T02:27:12;10.40;;;4.73;;
5303;SDS011;2674;49.722;10.892;2022-10-23T02:29:44;4.67;;;4.13;;
5303;SDS011;2674;49.722;10.892;2022-10-23T02:32:17;8.50;;;4.20;;
5303;SDS011;2674;49.722;10.892;2022-10-23T02:34:46;13.03;;;5.70;;
5303;SDS011;2674;49.722;10.892;2022-10-23T02:37:12;5.30;;;4.47;;
5303;SDS011;2674;49.722;10.892;2022-10-23T02:39:38;6.43;;;4.20;;
5303;SDS011;2674;49.722;10.892;2022-10-23T02:50:21;9.70;;;4.40;;
5303;SDS011;2674;49.722;10.892;2022-10-23T02:56:17;7.40;;;4.50;;
5303;SDS011;2674;49.722;10.892;2022-10-23T03:01:37;11.30;;;4.57;;
5303;SDS011;2674;49.722;10.892;2022-10-23T03:04:22;8.50;;;4.20;;
5303;SDS011;2674;49.722;10.892;2022-10-23T03:06:50;6.40;;;4.93;;
5303;SDS011;2674;49.722;10.892;2022-10-23T03:09:16;11.90;;;5.03;;
5303;SDS011;2674;49.722;10.892;2022-10-23T03:11:42;5.50;;;4.97;;
5303;SDS011;2674;49.722;10.892;2022-10-23T03:14:09;7.90;;;4.50;;
5303;SDS011;2674;49.722;10.892;2022-10-23T03:16:37;10.57;;;5.03;;
5303;SDS011;2674;49.722;10.892;2022-10-23T03:19:03;6.13;;;4.77;;
5303;SDS011;2674;49.722;10.892;2022-10-23T03:21:28;9.07;;;5.43;;
5303;SDS011;2674;49.722;10.892;2022-10-23T03:23:54;11.33;;;4.80;;
5303;SDS011;2674;49.722;10.892;2022-10-23T03:26:20;13.20;;;5.63;;
5303;SDS011;2674;49.722;10.892;2022-10-23T03:28:46;9.57;;;5.33;;
5303;SDS011;2674;49.722;10.892;2022-10-23T03:31:12;4.70;;;3.93;;
5303;SDS011;2674;49.722;10.892;2022-10-23T03:33:38;6.10;;;4.13;;
5303;SDS011;2674;49.722;10.892;2022-10-23T03:36:04;10.60;;;5.03;;
5303;SDS011;2674;49.722;10.892;2022-10-23T03:38:30;8.50;;;6.57;;
5303;SDS011;2674;49.722;10.892;2022-10-23T03:40:56;6.87;;;5.60;;
5303;SDS011;2674;49.722;10.892;2022-10-23T03:43:22;8.57;;;6.23;;
5303;SDS011;2674;49.722;10.892;2022-10-23T03:45:48;10.57;;;6.77;;
5303;SDS011;2674;49.722;10.892;2022-10-23T03:48:14;9.90;;;4.90;;
5303;SDS011;2674;49.722;10.892;2022-10-23T03:50:40;11.83;;;4.90;;
5303;SDS011;2674;49.722;10.892;2022-10-23T03:53:06;8.40;;;4.53;;
5303;SDS011;2674;49.722;10.892;2022-10-23T03:55:32;6.33;;;4.60;;
5303;SDS011;2674;49.722;10.892;2022-10-23T03:57:58;5.00;;;4.23;;
5303;SDS011;2674;49.722;10.892;2022-10-23T04:00:24;7.07;;;4.50;;
5303;SDS011;2674;49.722;10.892;2022-10-23T04:02:49;7.00;;;5.20;;
5303;SDS011;2674;49.722;10.892;2022-10-23T04:05:15;6.63;;;4.60;;
5303;SDS011;2674;49.722;10.892;2022-10-23T04:07:41;10.20;;;5.13;;
5303;SDS011;2674;49.722;10.892;2022-10-23T04:10:07;12.60;;;4.90;;
5303;SDS011;2674;49.722;10.892;2022-10-23T04:12:33;8.47;;;4.20;;
5303;SDS011;2674;49.722;10.892;2022-10-23T04:14:59;4.93;;;4.27;;
5303;SDS011;2674;49.722;10.892;2022-10-23T04:17:25;5.90;;;4.10;;
5303;SDS011;2674;49.722;10.892;2022-10-23T04:19:51;6.10;;;4.80;;
5303;SDS011;2674;49.722;10.892;2022-10-23T04:22:17;9.37;;;5.70;;
5303;SDS011;2674;49.722;10.892;2022-10-23T04:24:42;9.50;;;5.40;;
5303;SDS011;2674;49.722;10.892;2022-10-23T04:27:11;10.90;;;5.80;;
5303;SDS011;2674;49.722;10.892;2022-10-23T04:29:37;9.70;;;5.37;;
5303;SDS011;2674;49.722;10.892;2022-10-23T04:32:03;7.87;;;6.57;;
5303;SDS011;2674;49.722;10.892;2022-10-23T04:34:30;6.70;;;5.50;;
5303;SDS011;2674;49.722;10.892;2022-10-23T04:36:56;7.10;;;5.00;;
5303;SDS011;2674;49.722;10.892;2022-10-23T04:39:22;7.00;;;5.03;;
5303;SDS011;2674;49.722;10.892;2022-10-23T04:41:48;12.37;;;5.67;;
5303;SDS011;2674;49.722;10.892;2022-10-23T04:44:14;13.27;;;4.77;;
5303;SDS011;2674;49.722;10.892;2022-10-23T04:46:40;5.30;;;4.90;;
5303;SDS011;2674;49.722;10.892;2022-10-23T04:49:06;6.93;;;5.23;;
5303;SDS011;2674;49.722;10.892;2022-10-23T04:51:32;8.57;;;5.03;;
5303;SDS011;2674;49.722;10.892;2022-10-23T04:53:58;15.63;;;6.17;;
5303;SDS011;2674;49.722;10.892;2022-10-23T04:56:24;12.53;;;5.73;;
5303;SDS011;2674;49.722;10.892;2022-10-23T04:58:50;8.67;;;5.20;;
5303;SDS011;2674;49.722;10.892;2022-10-23T05:01:19;7.53;;;4.50;;
5303;SDS011;2674;49.722;10.892;2022-10-23T05:03:45;9.50;;;5.70;;
5303;SDS011;2674;49.722;10.892;2022-10-23T05:06:11;9.07;;;6.20;;
5303;SDS011;2674;49.722;10.892;2022-10-23T05:08:37;7.50;;;5.33;;
5303;SDS011;2674;49.722;10.892;2022-10-23T05:11:03;7.53;;;5.27;;
5303;SDS011;2674;49.722;10.892;2022-10-23T05:13:29;8.73;;;5.30;;
5303;SDS011;2674;49.722;10.892;2022-10-23T05:15:56;8.80;;;5.90;;
5303;SDS011;2674;49.722;10.892;2022-10-23T05:18:44;9.50;;;6.40;;
5303;SDS011;2674;49.722;10.892;2022-10-23T05:21:15;15.10;;;4.83;;
5303;SDS011;2674;49.722;10.892;2022-10-23T05:23:46;6.10;;;5.60;;
5303;SDS011;2674;49.722;10.892;2022-10-23T05:26:12;5.60;;;5.10;;
5303;SDS011;2674;49.722;10.892;2022-10-23T05:28:38;12.67;;;7.20;;
5303;SDS011;2674;49.722;10.892;2022-10-23T05:31:04;9.17;;;4.50;;
5303;SDS011;2674;49.722;10.892;2022-10-23T05:33:30;7.83;;;5.10;;
5303;SDS011;2674;49.722;10.892;2022-10-23T05:35:58;9.90;;;4.60;;
5303;SDS011;2674;49.722;10.892;2022-10-23T05:38:25;4.80;;;4.40;;
5303;SDS011;2674;49.722;10.892;2022-10-23T05:40:53;8.50;;;4.50;;
5303;SDS011;2674;49.722;10.892;2022-10-23T05:43:19;6.83;;;4.30;;
5303;SDS011;2674;49.722;10.892;2022-10-23T05:45:45;4.70;;;4.37;;
5303;SDS011;2674;49.722;10.892;2022-10-23T05:48:13;5.40;;;4.90;;
5303;SDS011;2674;49.722;10.892;2022-10-23T05:50:40;5.40;;;4.50;;
5303;SDS011;2674;49.722;10.892;2022-10-23T05:53:06;5.00;;;4.50;;
5303;SDS011;2674;49.722;10.892;2022-10-23T05:55:33;10.27;;;4.70;;
5303;SDS011;2674;49.722;10.892;2022-10-23T05:58:03;6.30;;;3.97;;
5303;SDS011;2674;49.722;10.892;2022-10-23T06:00:29;11.17;;;4.60;;
5303;SDS011;2674;49.722;10.892;2022-10-23T06:02:57;5.70;;;3.80;;
5303;SDS011;2674;49.722;10.892;2022-10-23T06:05:24;12.17;;;4.63;;
5303;SDS011;2674;49.722;10.892;2022-10-23T06:07:50;5.17;;;4.67;;
5303;SDS011;2674;49.722;10.892;2022-10-23T06:10:16;11.27;;;5.60;;
5303;SDS011;2674;49.722;10.892;2022-10-23T06:12:42;7.17;;;4.40;;
5303;SDS011;2674;49.722;10.892;2022-10-23T06:15:08;5.83;;;5.23;;
5303;SDS011;2674;49.722;10.892;2022-10-23T06:17:34;13.00;;;4.60;;
5303;SDS011;2674;49.722;10.892;2022-10-23T06:20:00;10.87;;;5.30;;
5303;SDS011;2674;49.722;10.892;2022-10-23T06:22:27;5.10;;;4.67;;
5303;SDS011;2674;49.722;10.892;2022-10-23T06:24:54;6.83;;;5.10;;
5303;SDS011;2674;49.722;10.892;2022-10-23T06:27:20;8.03;;;4.87;;
5303;SDS011;2674;49.722;10.892;2022-10-23T06:29:46;10.30;;;5.07;;
5303;SDS011;2674;49.722;10.892;2022-10-23T06:32:12;6.90;;;6.10;;
5303;SDS011;2674;49.722;10.892;2022-10-23T06:34:38;5.53;;;5.13;;
5303;SDS011;2674;49.722;10.892;2022-10-23T06:37:04;7.80;;;5.63;;
5303;SDS011;2674;49.722;10.892;2022-10-23T06:39:30;5.40;;;5.00;;
5303;SDS011;2674;49.722;10.892;2022-10-23T06:41:56;5.67;;;5.17;;
5303;SDS011;2674;49.722;10.892;2022-10-23T06:44:22;4.63;;;4.17;;
5303;SDS011;2674;49.722;10.892;2022-10-23T06:46:48;6.40;;;4.53;;
5303;SDS011;2674;49.722;10.892;2022-10-23T06:49:15;4.90;;;4.50;;
5303;SDS011;2674;49.722;10.892;2022-10-23T06:51:42;4.30;;;4.00;;
5303;SDS011;2674;49.722;10.892;2022-10-23T06:54:09;5.47;;;4.17;;
5303;SDS011;2674;49.722;10.892;2022-10-23T06:56:35;4.13;;;3.53;;
5303;SDS011;2674;49.722;10.892;2022-10-23T06:59:01;3.47;;;3.00;;
5303;SDS011;2674;49.722;10.892;2022-10-23T07:01:27;3.87;;;3.57;;
5303;SDS011;2674;49.722;10.892;2022-10-23T07:03:53;3.90;;;3.60;;
5303;SDS011;2674;49.722;10.892;2022-10-23T07:06:19;3.60;;;3.30;;
5303;SDS011;2674;49.722;10.892;2022-10-23T07:08:45;5.70;;;3.10;;
5303;SDS011;2674;49.722;10.892;2022-10-23T07:11:11;3.23;;;2.97;;
5303;SDS011;2674;49.722;10.892;2022-10-23T07:13:37;4.70;;;3.47;;
5303;SDS011;2674;49.722;10.892;2022-10-23T07:16:09;5.50;;;3.03;;
5303;SDS011;2674;49.722;10.892;2022-10-23T07:18:35;3.13;;;3.00;;
5303;SDS011;2674;49.722;10.892;2022-10-23T07:21:01;2.97;;;2.60;;
5303;SDS011;2674;49.722;10.892;2022-10-23T07:23:27;5.40;;;2.90;;
5303;SDS011;2674;49.722;10.892;2022-10-23T07:25:52;3.40;;;2.87;;
5303;SDS011;2674;49.722;10.892;2022-10-23T07:28:18;6.20;;;2.50;;
5303;SDS011;2674;49.722;10.892;2022-10-23T07:30:44;3.23;;;2.47;;
5303;SDS011;2674;49.722;10.892;2022-10-23T07:33:19;3.00;;;2.80;;
5303;SDS011;2674;49.722;10.892;2022-10-23T07:35:45;8.03;;;2.53;;
5303;SDS011;2674;49.722;10.892;2022-10-23T07:38:11;3.13;;;2.97;;
5303;SDS011;2674;49.722;10.892;2022-10-23T07:40:37;3.53;;;2.60;;
5303;SDS011;2674;49.722;10.892;2022-10-23T07:43:03;2.63;;;2.43;;
5303;SDS011;2674;49.722;10.892;2022-10-23T07:45:29;5.70;;;2.13;;
5303;SDS011;2674;49.722;10.892;2022-10-23T07:47:55;2.50;;;2.30;;
5303;SDS011;2674;49.722;10.892;2022-10-23T07:50:21;4.80;;;2.40;;
5303;SDS011;2674;49.722;10.892;2022-10-23T07:52:47;2.63;;;2.43;;
5303;SDS011;2674;49.722;10.892;2022-10-23T07:55:13;7.97;;;2.93;;
5303;SDS011;2674;49.722;10.892;2022-10-23T07:57:39;2.50;;;2.30;;
5303;SDS011;2674;49.722;10.892;2022-10-23T08:00:05;3.40;;;1.80;;
5303;SDS011;2674;49.722;10.892;2022-10-23T08:02:31;2.50;;;2.30;;
5303;SDS011;2674;49.722;10.892;2022-10-23T08:04:57;1.70;;;1.60;;
5303;SDS011;2674;49.722;10.892;2022-10-23T08:07:23;2.47;;;2.27;;
5303;SDS011;2674;49.722;10.892;2022-10-23T08:09:49;3.30;;;2.00;;
5303;SDS011;2674;49.722;10.892;2022-10-23T08:12:15;2.10;;;2.00;;
5303;SDS011;2674;49.722;10.892;2022-10-23T08:14:41;2.60;;;2.50;;
5303;SDS011;2674;49.722;10.892;2022-10-23T08:17:06;2.87;;;1.97;;
5303;SDS011;2674;49.722;10.892;2022-10-23T08:19:34;6.57;;;2.20;;
5303;SDS011;2674;49.722;10.892;2022-10-23T08:22:00;1.77;;;1.63;;
5303;SDS011;2674;49.722;10.892;2022-10-23T08:24:27;6.40;;;1.73;;
5303;SDS011;2674;49.722;10.892;2022-10-23T08:26:53;2.03;;;1.93;;
5303;SDS011;2674;49.722;10.892;2022-10-23T08:29:19;2.07;;;1.97;;
5303;SDS011;2674;49.722;10.892;2022-10-23T08:31:45;2.10;;;1.30;;
5303;SDS011;2674;49.722;10.892;2022-10-23T08:34:11;2.00;;;1.90;;
5303;SDS011;2674;49.722;10.892;2022-10-23T08:36:38;1.90;;;1.67;;
5303;SDS011;2674;49.722;10.892;2022-10-23T08:39:04;1.63;;;1.30;;
5303;SDS011;2674;49.722;10.892;2022-10-23T08:41:34;1.60;;;1.50;;
5303;SDS011;2674;49.722;10.892;2022-10-23T08:44:11;2.57;;;2.00;;
5303;SDS011;2674;49.722;10.892;2022-10-23T08:46:47;2.73;;;1.60;;
5303;SDS011;2674;49.722;10.892;2022-10-23T08:51:50;1.80;;;1.70;;
5303;SDS011;2674;49.722;10.892;2022-10-23T08:54:21;2.47;;;1.40;;
5303;SDS011;2674;49.722;10.892;2022-10-23T08:56:51;2.07;;;1.77;;
5303;SDS011;2674;49.722;10.892;2022-10-23T08:59:26;2.10;;;1.77;;
5303;SDS011;2674;49.722;10.892;2022-10-23T09:01:58;1.83;;;1.73;;
5303;SDS011;2674;49.722;10.892;2022-10-23T09:04:25;3.33;;;1.50;;
5303;SDS011;2674;49.722;10.892;2022-10-23T09:06:56;2.30;;;2.10;;
5303;SDS011;2674;49.722;10.892;2022-10-23T09:12:26;1.60;;;1.50;;
5303;SDS011;2674;49.722;10.892;2022-10-23T09:14:59;2.93;;;1.77;;
5303;SDS011;2674;49.722;10.892;2022-10-23T09:17:45;1.60;;;1.50;;
5303;SDS011;2674;49.722;10.892;2022-10-23T09:20:32;1.50;;;1.40;;
5303;SDS011;2674;49.722;10.892;2022-10-23T09:23:04;5.20;;;1.77;;
5303;SDS011;2674;49.722;10.892;2022-10-23T09:25:39;1.50;;;1.40;;
5303;SDS011;2674;49.722;10.892;2022-10-23T09:28:10;2.07;;;1.97;;
5303;SDS011;2674;49.722;10.892;2022-10-23T09:30:48;1.80;;;1.70;;
5303;SDS011;2674;49.722;10.892;2022-10-23T09:33:20;1.43;;;1.33;;
5303;SDS011;2674;49.722;10.892;2022-10-23T09:35:52;6.40;;;1.60;;
5303;SDS011;2674;49.722;10.892;2022-10-23T09:38:26;2.73;;;1.50;;
5303;SDS011;2674;49.722;10.892;2022-10-23T09:41:20;1.53;;;1.30;;
5303;SDS011;2674;49.722;10.892;2022-10-23T09:43:45;3.70;;;1.83;;
5303;SDS011;2674;49.722;10.892;2022-10-23T09:46:12;3.13;;;1.77;;
5303;SDS011;2674;49.722;10.892;2022-10-23T09:48:38;2.37;;;2.10;;
5303;SDS011;2674;49.722;10.892;2022-10-23T09:51:17;2.50;;;2.30;;
5303;SDS011;2674;49.722;10.892;2022-10-23T09:53:51;1.50;;;1.50;;
5303;SDS011;2674;49.722;10.892;2022-10-23T09:59:00;2.90;;;1.20;;
5303;SDS011;2674;49.722;10.892;2022-10-23T10:01:47;2.00;;;1.60;;
5303;SDS011;2674;49.722;10.892;2022-10-23T10:04:17;5.03;;;2.43;;
5303;SDS011;2674;49.722;10.892;2022-10-23T10:06:43;3.30;;;1.50;;
5303;SDS011;2674;49.722;10.892;2022-10-23T10:09:16;1.30;;;1.20;;
5303;SDS011;2674;49.722;10.892;2022-10-23T10:17:01;3.80;;;1.60;;
5303;SDS011;2674;49.722;10.892;2022-10-23T10:19:44;1.73;;;1.63;;
5303;SDS011;2674;49.722;10.892;2022-10-23T10:28:08;1.40;;;1.30;;
5303;SDS011;2674;49.722;10.892;2022-10-23T10:33:56;2.10;;;1.30;;
5303;SDS011;2674;49.722;10.892;2022-10-23T10:36:54;1.90;;;1.40;;
5303;SDS011;2674;49.722;10.892;2022-10-23T10:45:21;1.43;;;1.33;;
5303;SDS011;2674;49.722;10.892;2022-10-23T10:51:16;2.80;;;1.07;;
5303;SDS011;2674;49.722;10.892;2022-10-23T10:53:42;2.93;;;1.40;;
5303;SDS011;2674;49.722;10.892;2022-10-23T10:56:30;3.13;;;1.50;;
5303;SDS011;2674;49.722;10.892;2022-10-23T10:58:59;3.50;;;1.40;;
5303;SDS011;2674;49.722;10.892;2022-10-23T11:01:34;4.73;;;1.63;;
5303;SDS011;2674;49.722;10.892;2022-10-23T11:06:39;2.33;;;0.83;;
5303;SDS011;2674;49.722;10.892;2022-10-23T11:09:16;6.03;;;1.27;;
5303;SDS011;2674;49.722;10.892;2022-10-23T11:11:45;1.30;;;1.20;;
5303;SDS011;2674;49.722;10.892;2022-10-23T11:14:13;4.07;;;1.87;;
5303;SDS011;2674;49.722;10.892;2022-10-23T11:17:06;5.60;;;1.60;;
5303;SDS011;2674;49.722;10.892;2022-10-23T11:28:18;3.03;;;1.47;;
5303;SDS011;2674;49.722;10.892;2022-10-23T11:31:00;1.40;;;1.23;;
5303;SDS011;2674;49.722;10.892;2022-10-23T11:39:19;1.13;;;1.10;;
5303;SDS011;2674;49.722;10.892;2022-10-23T11:41:57;1.00;;;1.00;;
5303;SDS011;2674;49.722;10.892;2022-10-23T11:47:04;0.90;;;0.90;;
5303;SDS011;2674;49.722;10.892;2022-10-23T11:49:49;4.97;;;1.37;;
5303;SDS011;2674;49.722;10.892;2022-10-23T11:52:22;1.20;;;0.80;;
5303;SDS011;2674;49.722;10.892;2022-10-23T11:58:07;1.70;;;1.20;;
5303;SDS011;2674;49.722;10.892;2022-10-23T12:00:55;1.00;;;1.00;;
5303;SDS011;2674;49.722;10.892;2022-10-23T12:03:35;1.37;;;1.20;;
5303;SDS011;2674;49.722;10.892;2022-10-23T12:06:06;1.27;;;1.17;;
5303;SDS011;2674;49.722;10.892;2022-10-23T12:08:40;1.67;;;1.57;;
5303;SDS011;2674;49.722;10.892;2022-10-23T12:11:23;1.87;;;1.37;;
5303;SDS011;2674;49.722;10.892;2022-10-23T12:13:50;2.37;;;1.70;;
5303;SDS011;2674;49.722;10.892;2022-10-23T12:16:16;1.67;;;1.37;;
5303;SDS011;2674;49.722;10.892;2022-10-23T12:18:52;1.03;;;1.00;;
5303;SDS011;2674;49.722;10.892;2022-10-23T12:21:23;3.47;;;1.10;;
5303;SDS011;2674;49.722;10.892;2022-10-23T12:26:37;2.03;;;1.27;;
5303;SDS011;2674;49.722;10.892;2022-10-23T12:29:19;3.60;;;1.70;;
5303;SDS011;2674;49.722;10.892;2022-10-23T12:34:49;1.10;;;1.10;;
5303;SDS011;2674;49.722;10.892;2022-10-23T12:40:27;1.30;;;1.30;;
5303;SDS011;2674;49.722;10.892;2022-10-23T12:42:55;1.00;;;1.00;;
5303;SDS011;2674;49.722;10.892;2022-10-23T12:45:23;1.00;;;1.00;;
5303;SDS011;2674;49.722;10.892;2022-10-23T12:47:55;1.20;;;1.10;;
5303;SDS011;2674;49.722;10.892;2022-10-23T12:50:23;1.20;;;1.03;;
5303;SDS011;2674;49.722;10.892;2022-10-23T12:52:55;1.57;;;1.47;;
5303;SDS011;2674;49.722;10.892;2022-10-23T12:55:23;1.20;;;1.20;;
5303;SDS011;2674;49.722;10.892;2022-10-23T12:57:51;1.50;;;1.47;;
5303;SDS011;2674;49.722;10.892;2022-10-23T13:00:19;1.97;;;1.70;;
5303;SDS011;2674;49.722;10.892;2022-10-23T13:02:55;1.90;;;1.47;;
5303;SDS011;2674;49.722;10.892;2022-10-23T13:05:22;3.17;;;1.63;;
5303;SDS011;2674;49.722;10.892;2022-10-23T13:07:49;2.17;;;1.67;;
5303;SDS011;2674;49.722;10.892;2022-10-23T13:10:17;1.60;;;1.50;;
5303;SDS011;2674;49.722;10.892;2022-10-23T13:12:54;0.90;;;0.90;;
5303;SDS011;2674;49.722;10.892;2022-10-23T13:15:24;1.47;;;1.37;;
5303;SDS011;2674;49.722;10.892;2022-10-23T13:18:01;2.07;;;1.70;;
5303;SDS011;2674;49.722;10.892;2022-10-23T13:20:36;3.87;;;1.47;;
5303;SDS011;2674;49.722;10.892;2022-10-23T13:23:09;2.80;;;2.53;;
5303;SDS011;2674;49.722;10.892;2022-10-23T13:25:41;2.30;;;1.17;;
5303;SDS011;2674;49.722;10.892;2022-10-23T13:31:01;4.00;;;1.60;;
5303;SDS011;2674;49.722;10.892;2022-10-23T13:34:02;1.43;;;1.30;;
5303;SDS011;2674;49.722;10.892;2022-10-23T13:36:33;1.60;;;1.50;;
5303;SDS011;2674;49.722;10.892;2022-10-23T13:39:12;1.73;;;1.63;;
5303;SDS011;2674;49.722;10.892;2022-10-23T13:41:45;1.90;;;1.70;;
5303;SDS011;2674;49.722;10.892;2022-10-23T13:44:13;1.30;;;1.30;;
5303;SDS011;2674;49.722;10.892;2022-10-23T13:46:42;1.43;;;1.33;;
5303;SDS011;2674;49.722;10.892;2022-10-23T13:49:09;2.80;;;1.27;;
5303;SDS011;2674;49.722;10.892;2022-10-23T13:51:43;1.40;;;1.30;;
5303;SDS011;2674;49.722;10.892;2022-10-23T13:54:23;2.13;;;1.97;;
5303;SDS011;2674;49.722;10.892;2022-10-23T13:56:51;2.00;;;1.50;;
5303;SDS011;2674;49.722;10.892;2022-10-23T13:59:18;3.40;;;1.77;;
5303;SDS011;2674;49.722;10.892;2022-10-23T14:01:44;1.33;;;1.23;;
5303;SDS011;2674;49.722;10.892;2022-10-23T14:04:12;3.37;;;1.20;;
5303;SDS011;2674;49.722;10.892;2022-10-23T14:06:39;7.53;;;1.80;;
5303;SDS011;2674;49.722;10.892;2022-10-23T14:09:06;1.80;;;1.70;;
5303;SDS011;2674;49.722;10.892;2022-10-23T14:11:36;1.37;;;1.27;;
5303;SDS011;2674;49.722;10.892;2022-10-23T14:14:02;1.50;;;1.40;;
5303;SDS011;2674;49.722;10.892;2022-10-23T14:16:28;1.43;;;1.30;;
5303;SDS011;2674;49.722;10.892;2022-10-23T14:18:55;1.70;;;1.43;;
5303;SDS011;2674;49.722;10.892;2022-10-23T14:21:21;1.30;;;1.20;;
5303;SDS011;2674;49.722;10.892;2022-10-23T14:23:49;7.07;;;1.30;;
5303;SDS011;2674;49.722;10.892;2022-10-23T14:26:16;1.63;;;1.33;;
5303;SDS011;2674;49.722;10.892;2022-10-23T14:28:45;2.30;;;1.60;;
5303;SDS011;2674;49.722;10.892;2022-10-23T14:31:12;1.40;;;1.30;;
5303;SDS011;2674;49.722;10.892;2022-10-23T14:33:40;7.43;;;2.37;;
5303;SDS011;2674;49.722;10.892;2022-10-23T14:36:07;3.73;;;2.20;;
5303;SDS011;2674;49.722;10.892;2022-10-23T14:38:34;1.60;;;1.50;;
5303;SDS011;2674;49.722;10.892;2022-10-23T14:41:00;2.43;;;1.63;;
5303;SDS011;2674;49.722;10.892;2022-10-23T14:43:27;2.40;;;1.43;;
5303;SDS011;2674;49.722;10.892;2022-10-23T14:45:53;1.53;;;1.40;;
5303;SDS011;2674;49.722;10.892;2022-10-23T14:48:19;2.63;;;1.40;;
5303;SDS011;2674;49.722;10.892;2022-10-23T14:50:45;1.77;;;1.67;;
5303;SDS011;2674;49.722;10.892;2022-10-23T14:53:15;2.00;;;1.70;;
5303;SDS011;2674;49.722;10.892;2022-10-23T14:55:41;3.17;;;1.60;;
5303;SDS011;2674;49.722;10.892;2022-10-23T14:58:06;7.43;;;2.00;;
5303;SDS011;2674;49.722;10.892;2022-10-23T15:00:32;1.57;;;1.47;;
5303;SDS011;2674;49.722;10.892;2022-10-23T15:02:58;3.80;;;1.67;;
5303;SDS011;2674;49.722;10.892;2022-10-23T15:05:25;2.20;;;1.40;;
5303;SDS011;2674;49.722;10.892;2022-10-23T15:07:51;3.40;;;1.67;;
5303;SDS011;2674;49.722;10.892;2022-10-23T15:10:19;2.50;;;1.57;;
5303;SDS011;2674;49.722;10.892;2022-10-23T15:12:44;1.60;;;1.50;;
5303;SDS011;2674;49.722;10.892;2022-10-23T15:15:11;8.50;;;1.90;;
5303;SDS011;2674;49.722;10.892;2022-10-23T15:17:36;6.30;;;1.80;;
5303;SDS011;2674;49.722;10.892;2022-10-23T15:20:03;2.70;;;1.80;;
5303;SDS011;2674;49.722;10.892;2022-10-23T15:22:29;2.33;;;1.63;;
5303;SDS011;2674;49.722;10.892;2022-10-23T15:24:55;2.00;;;1.70;;
5303;SDS011;2674;49.722;10.892;2022-10-23T15:27:21;2.23;;;2.03;;
5303;SDS011;2674;49.722;10.892;2022-10-23T15:29:47;2.73;;;1.57;;
5303;SDS011;2674;49.722;10.892;2022-10-23T15:32:13;11.03;;;2.10;;
5303;SDS011;2674;49.722;10.892;2022-10-23T15:34:40;2.20;;;1.67;;
5303;SDS011;2674;49.722;10.892;2022-10-23T15:37:07;2.00;;;1.50;;
5303;SDS011;2674;49.722;10.892;2022-10-23T15:39:34;2.87;;;2.00;;
5303;SDS011;2674;49.722;10.892;2022-10-23T15:42:01;2.70;;;1.80;;
5303;SDS011;2674;49.722;10.892;2022-10-23T15:44:29;2.70;;;2.50;;
5303;SDS011;2674;49.722;10.892;2022-10-23T15:46:56;2.23;;;2.13;;
5303;SDS011;2674;49.722;10.892;2022-10-23T15:49:23;2.90;;;2.17;;
5303;SDS011;2674;49.722;10.892;2022-10-23T15:51:50;5.33;;;2.83;;
5303;SDS011;2674;49.722;10.892;2022-10-23T15:54:17;2.67;;;1.97;;
5303;SDS011;2674;49.722;10.892;2022-10-23T15:56:44;5.50;;;1.83;;
5303;SDS011;2674;49.722;10.892;2022-10-23T15:59:11;4.90;;;2.33;;
5303;SDS011;2674;49.722;10.892;2022-10-23T16:01:38;3.10;;;2.90;;
5303;SDS011;2674;49.722;10.892;2022-10-23T16:04:04;13.23;;;2.67;;
5303;SDS011;2674;49.722;10.892;2022-10-23T16:06:30;2.50;;;2.30;;
5303;SDS011;2674;49.722;10.892;2022-10-23T16:08:56;2.60;;;2.40;;
5303;SDS011;2674;49.722;10.892;2022-10-23T16:11:23;2.60;;;2.40;;
5303;SDS011;2674;49.722;10.892;2022-10-23T16:13:52;3.13;;;2.40;;
5303;SDS011;2674;49.722;10.892;2022-10-23T16:16:19;18.97;;;8.60;;
5303;SDS011;2674;49.722;10.892;2022-10-23T16:18:45;9.43;;;3.57;;
5303;SDS011;2674;49.722;10.892;2022-10-23T16:21:30;3.30;;;3.00;;
5303;SDS011;2674;49.722;10.892;2022-10-23T16:23:58;4.87;;;3.67;;
5303;SDS011;2674;49.722;10.892;2022-10-23T16:26:25;7.00;;;3.50;;
5303;SDS011;2674;49.722;10.892;2022-10-23T16:28:53;4.23;;;3.93;;
5303;SDS011;2674;49.722;10.892;2022-10-23T16:31:24;3.67;;;2.63;;
5303;SDS011;2674;49.722;10.892;2022-10-23T16:33:51;6.50;;;3.57;;
5303;SDS011;2674;49.722;10.892;2022-10-23T16:36:18;9.37;;;3.90;;
5303;SDS011;2674;49.722;10.892;2022-10-23T16:38:44;11.73;;;4.60;;
5303;SDS011;2674;49.722;10.892;2022-10-23T16:41:10;11.73;;;4.83;;
5303;SDS011;2674;49.722;10.892;2022-10-23T16:43:36;3.47;;;3.27;;
5303;SDS011;2674;49.722;10.892;2022-10-23T16:46:06;4.30;;;3.47;;
5303;SDS011;2674;49.722;10.892;2022-10-23T16:48:37;6.10;;;3.80;;
5303;SDS011;2674;49.722;10.892;2022-10-23T16:51:04;4.37;;;3.97;;